Time;durP1;ratioP1;P1;durP2;ratioP2;P2;SDS_P1;SDS_P2;PMS_P1;PMS_P2;Temp;Humidity;BMP_temperature;BMP_pressure;BME280_temperature;BME280_humidity;BME280_pressure;Samples;Min_cycle;Max_cycle;Signal;HPM_P1;HPM_P2
2023/08/28 00:02:09;;;;;;;;;;;14.80;99.90;;;;;;7338459;19;109836;-66
2023/08/28 00:04:36;;;;;;;;;;;14.80;99.90;;;;;;7338609;19;109460;-66
2023/08/28 00:07:03;;;;;;;;;;;14.80;99.90;;;;;;7337189;19;110272;-66
2023/08/28 00:09:30;;;;;;;;;;;14.70;99.90;;;;;;7335977;19;113682;-66
2023/08/28 00:11:57;;;;;;;;;;;14.70;99.90;;;;;;7337774;19;109030;-66
2023/08/28 00:14:24;;;;;;;;;;;14.60;99.90;;;;;;7340688;19;108501;-66
2023/08/28 00:16:52;;;;;;;;;;;14.60;99.90;;;;;;7336171;19;111392;-66
2023/08/28 00:19:19;;;;;;;;;;;14.60;99.90;;;;;;7334011;19;110093;-66
2023/08/28 00:21:47;;;;;;;;;;;14.60;99.90;;;;;;7336647;19;109153;-66
2023/08/28 00:24:14;;;;;;;;;;;14.50;99.90;;;;;;7336345;19;109903;-66
2023/08/28 00:26:41;;;;;;;;;;;14.50;99.90;;;;;;7334631;19;109311;-66
2023/08/28 00:29:08;;;;;;;;;;;14.40;99.90;;;;;;7336531;19;109658;-66
2023/08/28 00:31:35;;;;;;;;;;;14.40;99.90;;;;;;7333129;19;109217;-66
2023/08/28 00:34:02;;;;;;;;;;;14.40;99.90;;;;;;7336987;19;108569;-66
2023/08/28 00:36:29;;;;;;;;;;;14.50;99.90;;;;;;7332676;19;110173;-66
2023/08/28 00:38:56;;;;;;;;;;;14.40;99.90;;;;;;7340318;19;110123;-66
2023/08/28 00:41:24;;;;;;;;;;;14.40;99.90;;;;;;7333838;19;109259;-66
2023/08/28 00:43:51;;;;;;;;;;;14.30;99.90;;;;;;7336307;19;109627;-66
2023/08/28 00:46:18;;;;;;;;;;;14.20;99.90;;;;;;7331819;19;110692;-66
2023/08/28 00:48:45;;;;;;;;;;;14.20;99.90;;;;;;7332350;19;109421;-66
2023/08/28 00:51:13;;;;;;;;;;;14.30;99.90;;;;;;7337948;19;111078;-66
2023/08/28 00:53:40;;;;;;;;;;;14.20;99.90;;;;;;7333473;19;109408;-65
2023/08/28 00:56:07;;;;;;;;;;;14.20;99.90;;;;;;7335877;19;108531;-66
2023/08/28 00:58:34;;;;;;;;;;;14.20;99.90;;;;;;7330606;19;110202;-66
2023/08/28 01:01:02;;;;;;;;;;;14.20;99.90;;;;;;7344293;19;108710;-66
2023/08/28 01:03:29;;;;;;;;;;;14.20;99.90;;;;;;7335394;19;109198;-66
2023/08/28 01:05:56;;;;;;;;;;;14.10;99.90;;;;;;7334916;19;108253;-66
2023/08/28 01:08:29;;;;;;;;;;;14.10;99.90;;;;;;7337086;19;109694;-66
2023/08/28 01:11:06;;;;;;;;;;;14.10;99.90;;;;;;7333378;19;109103;-66
2023/08/28 01:13:36;;;;;;;;;;;14.00;99.90;;;;;;7333770;19;109893;-66
2023/08/28 01:16:04;;;;;;;;;;;14.10;99.90;;;;;;7337354;19;109652;-66
2023/08/28 01:18:32;;;;;;;;;;;14.10;99.90;;;;;;7332665;19;109099;-67
2023/08/28 01:20:59;;;;;;;;;;;14.00;99.90;;;;;;7340376;19;109499;-66
2023/08/28 01:23:27;;;;;;;;;;;14.00;99.90;;;;;;7335119;19;109909;-66
2023/08/28 01:25:54;;;;;;;;;;;13.90;99.90;;;;;;7333135;19;109850;-67
2023/08/28 01:28:23;;;;;;;;;;;13.90;99.90;;;;;;7333848;19;108740;-66
2023/08/28 01:30:51;;;;;;;;;;;13.90;99.90;;;;;;7334840;19;113296;-66
2023/08/28 01:33:18;;;;;;;;;;;13.90;99.90;;;;;;7333193;19;108851;-66
2023/08/28 01:36:05;;;;;;;;;;;13.80;99.90;;;;;;7334799;19;113354;-66
2023/08/28 01:38:39;;;;;;;;;;;13.80;99.90;;;;;;7328428;19;110178;-67
2023/08/28 01:41:09;;;;;;;;;;;13.70;99.90;;;;;;7333319;19;108813;-66
2023/08/28 01:43:38;;;;;;;;;;;13.70;99.90;;;;;;7338998;19;110898;-66
2023/08/28 01:46:05;;;;;;;;;;;13.70;99.90;;;;;;7337344;19;109616;-66
2023/08/28 01:48:33;;;;;;;;;;;13.70;99.90;;;;;;7334213;19;108988;-66
2023/08/28 01:51:00;;;;;;;;;;;13.70;99.90;;;;;;7335927;19;109423;-66
2023/08/28 01:53:28;;;;;;;;;;;13.70;99.90;;;;;;7330689;19;111009;-67
2023/08/28 01:55:59;;;;;;;;;;;13.70;99.90;;;;;;7333973;19;119932;-67
2023/08/28 01:58:26;;;;;;;;;;;13.70;99.90;;;;;;7332213;19;110144;-66
2023/08/28 02:00:53;;;;;;;;;;;13.70;99.90;;;;;;7335197;19;108974;-66
2023/08/28 02:03:20;;;;;;;;;;;13.70;99.90;;;;;;7330956;19;110042;-66
2023/08/28 02:05:47;;;;;;;;;;;13.70;99.90;;;;;;7340220;19;109659;-67
2023/08/28 02:08:14;;;;;;;;;;;13.70;99.90;;;;;;7333289;19;112018;-66
2023/08/28 02:10:41;;;;;;;;;;;13.60;99.90;;;;;;7331397;19;109769;-67
2023/08/28 02:13:08;;;;;;;;;;;13.60;99.90;;;;;;7333162;19;109381;-66
2023/08/28 02:15:35;;;;;;;;;;;13.60;99.90;;;;;;7329369;19;109164;-66
2023/08/28 02:18:03;;;;;;;;;;;13.60;99.90;;;;;;7330702;19;110399;-67
2023/08/28 02:20:30;;;;;;;;;;;13.60;99.90;;;;;;7333777;19;109762;-66
2023/08/28 02:22:57;;;;;;;;;;;13.60;99.90;;;;;;7334094;19;109541;-66
2023/08/28 02:25:25;;;;;;;;;;;13.70;99.90;;;;;;7333573;19;110134;-67
2023/08/28 02:27:52;;;;;;;;;;;13.70;99.90;;;;;;7338869;19;110839;-66
2023/08/28 02:30:19;;;;;;;;;;;13.70;99.90;;;;;;7332560;19;110535;-66
2023/08/28 02:32:46;;;;;;;;;;;13.70;99.90;;;;;;7335673;19;109898;-65
2023/08/28 02:35:13;;;;;;;;;;;13.70;99.90;;;;;;7334330;19;108842;-65
2023/08/28 02:37:40;;;;;;;;;;;13.70;99.90;;;;;;7330747;19;110067;-66
2023/08/28 02:40:10;;;;;;;;;;;13.60;99.90;;;;;;7334048;19;109643;-66
2023/08/28 02:42:38;;;;;;;;;;;13.60;99.90;;;;;;7331101;19;110482;-66
2023/08/28 02:45:05;;;;;;;;;;;13.60;99.90;;;;;;7332341;19;109405;-66
2023/08/28 02:47:32;;;;;;;;;;;13.70;99.90;;;;;;7330814;19;108970;-66
2023/08/28 02:49:59;;;;;;;;;;;13.80;99.90;;;;;;7335367;19;109176;-66
2023/08/28 02:52:26;;;;;;;;;;;13.80;99.90;;;;;;7334672;19;108779;-66
2023/08/28 02:54:53;;;;;;;;;;;13.90;99.90;;;;;;7330348;19;109576;-66
2023/08/28 02:57:20;;;;;;;;;;;14.00;99.90;;;;;;7333587;19;109861;-66
2023/08/28 02:59:48;;;;;;;;;;;14.00;99.90;;;;;;7335934;19;108313;-65
2023/08/28 03:02:15;;;;;;;;;;;14.10;99.90;;;;;;7333564;19;110394;-66
2023/08/28 03:04:43;;;;;;;;;;;14.10;99.90;;;;;;7332254;19;110293;-66
2023/08/28 03:07:10;;;;;;;;;;;14.10;99.90;;;;;;7331888;19;108657;-66
2023/08/28 03:09:37;;;;;;;;;;;14.10;99.90;;;;;;7330436;19;110263;-66
2023/08/28 03:12:05;;;;;;;;;;;14.10;99.90;;;;;;7336314;19;110050;-66
2023/08/28 03:14:32;;;;;;;;;;;14.10;99.90;;;;;;7331510;19;108859;-67
2023/08/28 03:16:59;;;;;;;;;;;14.10;99.90;;;;;;7332223;19;109237;-66
2023/08/28 03:19:26;;;;;;;;;;;14.10;99.90;;;;;;7330991;19;110066;-66
2023/08/28 03:21:53;;;;;;;;;;;14.10;99.90;;;;;;7332925;19;110556;-67
2023/08/28 03:24:20;;;;;;;;;;;14.20;99.90;;;;;;7335802;19;110058;-69
2023/08/28 03:26:48;;;;;;;;;;;14.20;99.90;;;;;;7340215;19;108824;-66
2023/08/28 03:29:15;;;;;;;;;;;14.20;99.90;;;;;;7335360;19;108992;-66
2023/08/28 03:31:42;;;;;;;;;;;14.20;99.90;;;;;;7342928;19;109482;-66
2023/08/28 03:34:09;;;;;;;;;;;14.20;99.90;;;;;;7340229;19;110151;-66
2023/08/28 03:36:37;;;;;;;;;;;14.20;99.90;;;;;;7333670;19;110150;-67
2023/08/28 03:39:04;;;;;;;;;;;14.20;99.90;;;;;;7336455;19;108966;-66
2023/08/28 03:41:31;;;;;;;;;;;14.30;99.90;;;;;;7338613;19;109483;-66
2023/08/28 03:43:58;;;;;;;;;;;14.40;99.90;;;;;;7337554;19;110174;-66
2023/08/28 03:46:26;;;;;;;;;;;14.40;99.90;;;;;;7335847;19;109314;-67
2023/08/28 03:48:53;;;;;;;;;;;14.40;99.90;;;;;;7338681;19;109955;-69
2023/08/28 03:51:20;;;;;;;;;;;14.40;99.90;;;;;;7335473;19;110967;-66
2023/08/28 03:53:48;;;;;;;;;;;14.50;99.90;;;;;;7345086;19;109125;-64
2023/08/28 03:56:15;;;;;;;;;;;14.50;99.90;;;;;;7335861;19;109642;-74
2023/08/28 03:58:42;;;;;;;;;;;14.60;99.90;;;;;;7338533;19;108643;-68
2023/08/28 04:01:09;;;;;;;;;;;14.60;99.90;;;;;;7337983;19;110507;-67
2023/08/28 04:03:36;;;;;;;;;;;14.60;99.90;;;;;;7335191;19;110181;-67
2023/08/28 04:06:03;;;;;;;;;;;14.70;99.90;;;;;;7340091;19;108410;-68
2023/08/28 04:08:31;;;;;;;;;;;14.70;99.90;;;;;;7335761;19;112019;-72
2023/08/28 04:10:58;;;;;;;;;;;14.80;99.90;;;;;;7336224;19;109452;-68
2023/08/28 04:13:25;;;;;;;;;;;14.80;99.90;;;;;;7337843;19;108673;-69
2023/08/28 04:15:52;;;;;;;;;;;14.80;99.90;;;;;;7342109;19;109014;-72
2023/08/28 04:18:19;;;;;;;;;;;14.90;99.90;;;;;;7335795;19;109909;-71
2023/08/28 04:20:47;;;;;;;;;;;14.90;99.90;;;;;;7337343;19;109607;-73
2023/08/28 04:23:14;;;;;;;;;;;14.90;99.90;;;;;;7337146;19;109695;-72
2023/08/28 04:25:41;;;;;;;;;;;14.90;99.90;;;;;;7336723;19;109023;-73
2023/08/28 04:28:08;;;;;;;;;;;14.90;99.90;;;;;;7337657;19;109893;-74
2023/08/28 04:30:35;;;;;;;;;;;15.00;99.90;;;;;;7335550;19;109069;-70
2023/08/28 04:33:04;;;;;;;;;;;15.00;99.90;;;;;;7338392;19;108955;-68
2023/08/28 04:35:32;;;;;;;;;;;15.00;99.90;;;;;;7334684;19;109944;-70
2023/08/28 04:37:59;;;;;;;;;;;15.00;99.90;;;;;;7342185;19;109588;-70
2023/08/28 04:40:26;;;;;;;;;;;15.00;99.90;;;;;;7334204;19;111479;-74
2023/08/28 04:42:54;;;;;;;;;;;15.00;99.90;;;;;;7333600;19;109950;-68
2023/08/28 04:45:21;;;;;;;;;;;15.00;99.90;;;;;;7337053;19;109193;-70
2023/08/28 04:47:48;;;;;;;;;;;15.00;99.90;;;;;;7334373;19;112794;-86
2023/08/28 04:50:15;;;;;;;;;;;15.00;99.90;;;;;;7337085;19;110359;-86
2023/08/28 04:52:42;;;;;;;;;;;15.10;99.90;;;;;;7341969;19;109787;-75
2023/08/28 04:55:10;;;;;;;;;;;15.10;99.90;;;;;;7337023;19;110037;-72
2023/08/28 05:00:07;;;;;;;;;;;15.10;99.90;;;;;;7339100;19;108838;-68
2023/08/28 05:02:34;;;;;;;;;;;15.10;99.90;;;;;;7332937;19;110281;-69
2023/08/28 05:05:03;;;;;;;;;;;15.10;99.90;;;;;;7334068;19;108420;-66
2023/08/28 05:07:30;;;;;;;;;;;15.10;99.90;;;;;;7332962;19;110012;-66
2023/08/28 05:09:58;;;;;;;;;;;15.10;99.90;;;;;;7332804;19;109078;-71
2023/08/28 05:12:25;;;;;;;;;;;15.10;99.90;;;;;;7333416;19;110468;-67
2023/08/28 05:14:52;;;;;;;;;;;15.20;99.90;;;;;;7334753;19;109135;-66
2023/08/28 05:17:19;;;;;;;;;;;15.20;99.90;;;;;;7331010;19;109374;-67
2023/08/28 05:19:46;;;;;;;;;;;15.20;99.90;;;;;;7335283;19;110366;-64
2023/08/28 05:22:13;;;;;;;;;;;15.20;99.90;;;;;;7335208;19;110082;-67
2023/08/28 05:24:41;;;;;;;;;;;15.30;99.90;;;;;;7338175;19;108918;-68
2023/08/28 05:27:08;;;;;;;;;;;15.30;99.90;;;;;;7334267;19;109397;-67
2023/08/28 05:29:35;;;;;;;;;;;15.40;99.90;;;;;;7332605;19;109101;-67
2023/08/28 05:32:02;;;;;;;;;;;15.40;99.90;;;;;;7330897;19;109250;-67
2023/08/28 05:34:29;;;;;;;;;;;15.40;99.90;;;;;;7336356;19;108811;-68
2023/08/28 05:36:57;;;;;;;;;;;15.40;99.90;;;;;;7332969;19;109389;-67
2023/08/28 05:39:27;;;;;;;;;;;15.30;99.90;;;;;;7330145;19;109734;-67
2023/08/28 05:41:54;;;;;;;;;;;15.40;99.90;;;;;;7337113;19;109030;-68
2023/08/28 05:44:21;;;;;;;;;;;15.40;99.90;;;;;;7331097;19;108910;-67
2023/08/28 05:46:48;;;;;;;;;;;15.40;99.90;;;;;;7328241;19;114496;-67
2023/08/28 05:49:15;;;;;;;;;;;15.40;99.90;;;;;;7331110;19;110689;-68
2023/08/28 05:51:42;;;;;;;;;;;15.50;99.90;;;;;;7331467;19;108892;-69
2023/08/28 05:54:09;;;;;;;;;;;15.60;99.90;;;;;;7334624;19;109554;-73
2023/08/28 05:56:37;;;;;;;;;;;15.60;99.90;;;;;;7330089;19;109790;-65
2023/08/28 05:59:04;;;;;;;;;;;15.70;99.90;;;;;;7330782;19;108766;-67
2023/08/28 06:01:32;;;;;;;;;;;15.70;99.90;;;;;;7329479;19;108996;-67
2023/08/28 06:03:59;;;;;;;;;;;15.80;99.90;;;;;;7332868;19;111063;-66
2023/08/28 06:06:26;;;;;;;;;;;15.90;99.90;;;;;;7331376;19;109031;-66
2023/08/28 06:08:53;;;;;;;;;;;15.90;99.90;;;;;;7327235;19;110137;-66
2023/08/28 06:11:20;;;;;;;;;;;15.90;99.90;;;;;;7332146;19;109109;-66
2023/08/28 06:13:47;;;;;;;;;;;16.00;99.90;;;;;;7329414;19;110306;-66
2023/08/28 06:16:14;;;;;;;;;;;16.10;99.90;;;;;;7331960;19;109826;-67
2023/08/28 06:18:41;;;;;;;;;;;16.10;99.90;;;;;;7333487;19;110137;-67
2023/08/28 06:21:08;;;;;;;;;;;16.10;99.90;;;;;;7332964;19;109815;-67
2023/08/28 06:23:35;;;;;;;;;;;16.20;99.90;;;;;;7333851;19;109779;-68
2023/08/28 06:26:05;;;;;;;;;;;16.30;99.90;;;;;;7340667;19;109994;-67
2023/08/28 06:28:32;;;;;;;;;;;16.40;99.90;;;;;;7331683;19;108960;-67
2023/08/28 06:31:03;;;;;;;;;;;16.40;99.90;;;;;;7333970;19;109443;-67
2023/08/28 06:33:31;;;;;;;;;;;16.50;99.90;;;;;;7333997;19;111664;-68
2023/08/28 06:35:58;;;;;;;;;;;16.50;99.90;;;;;;7336572;19;109220;-68
2023/08/28 06:38:25;;;;;;;;;;;16.50;99.90;;;;;;7332272;19;110621;-68
2023/08/28 06:40:52;;;;;;;;;;;16.60;99.90;;;;;;7335151;19;108710;-66
2023/08/28 06:43:19;;;;;;;;;;;16.70;99.90;;;;;;7329877;19;109220;-67
2023/08/28 06:45:47;;;;;;;;;;;16.70;99.90;;;;;;7332423;19;108872;-68
2023/08/28 06:48:14;;;;;;;;;;;16.80;99.90;;;;;;7335443;19;108896;-67
2023/08/28 06:50:41;;;;;;;;;;;16.80;99.90;;;;;;7333310;19;108722;-67
2023/08/28 06:53:08;;;;;;;;;;;16.90;99.90;;;;;;7333089;19;109478;-67
2023/08/28 06:55:36;;;;;;;;;;;16.90;99.90;;;;;;7332718;19;109344;-67
2023/08/28 06:58:03;;;;;;;;;;;17.00;99.90;;;;;;7343994;19;109640;-67
2023/08/28 07:00:31;;;;;;;;;;;17.00;99.90;;;;;;7344455;19;110904;-66
2023/08/28 07:02:58;;;;;;;;;;;17.10;99.90;;;;;;7345959;19;109411;-67
2023/08/28 07:05:26;;;;;;;;;;;17.20;99.90;;;;;;7349419;19;108963;-67
2023/08/28 07:07:55;;;;;;;;;;;17.20;99.90;;;;;;7344841;19;108512;-67
2023/08/28 07:10:22;;;;;;;;;;;17.30;99.90;;;;;;7350500;19;109271;-67
2023/08/28 07:12:50;;;;;;;;;;;17.30;99.90;;;;;;7347959;19;109519;-67
2023/08/28 07:15:17;;;;;;;;;;;17.30;99.90;;;;;;7344581;19;109552;-67
2023/08/28 07:17:44;;;;;;;;;;;17.40;99.90;;;;;;7348291;19;109545;-67
2023/08/28 07:20:11;;;;;;;;;;;17.40;99.90;;;;;;7344302;19;109289;-67
2023/08/28 07:22:38;;;;;;;;;;;17.50;99.90;;;;;;7344724;19;109403;-67
2023/08/28 07:25:06;;;;;;;;;;;17.50;99.90;;;;;;7347482;19;110018;-67
2023/08/28 07:27:33;;;;;;;;;;;17.50;99.90;;;;;;7345014;19;109451;-67
2023/08/28 07:30:04;;;;;;;;;;;17.50;99.90;;;;;;7346091;19;109487;-67
2023/08/28 07:32:32;;;;;;;;;;;17.60;99.90;;;;;;7349164;19;108831;-67
2023/08/28 07:35:00;;;;;;;;;;;17.70;99.90;;;;;;7343542;19;109072;-67
2023/08/28 07:37:28;;;;;;;;;;;17.80;99.90;;;;;;7346728;19;109048;-67
2023/08/28 07:39:55;;;;;;;;;;;17.90;99.90;;;;;;7344905;19;109687;-67
2023/08/28 07:42:22;;;;;;;;;;;18.00;99.90;;;;;;7344407;19;109013;-67
2023/08/28 07:44:51;;;;;;;;;;;18.00;99.90;;;;;;7346216;19;108957;-67
2023/08/28 07:47:19;;;;;;;;;;;18.10;99.90;;;;;;7343107;19;110766;-68
2023/08/28 07:49:46;;;;;;;;;;;18.20;99.90;;;;;;7344462;19;112073;-67
2023/08/28 07:52:13;;;;;;;;;;;18.30;99.90;;;;;;7348259;19;109326;-67
2023/08/28 07:54:40;;;;;;;;;;;18.30;99.90;;;;;;7343438;19;114981;-67
2023/08/28 07:57:07;;;;;;;;;;;18.40;99.90;;;;;;7346985;19;109281;-67
2023/08/28 07:59:34;;;;;;;;;;;18.50;99.90;;;;;;7341038;19;109651;-67
2023/08/28 08:02:04;;;;;;;;;;;18.60;99.90;;;;;;7339658;19;110107;-67
2023/08/28 08:04:32;;;;;;;;;;;18.70;99.90;;;;;;7342251;19;109423;-67
2023/08/28 08:06:59;;;;;;;;;;;18.80;99.90;;;;;;7342247;19;109210;-67
2023/08/28 08:09:26;;;;;;;;;;;18.90;99.90;;;;;;7332894;19;110564;-67
2023/08/28 08:11:54;;;;;;;;;;;19.00;99.90;;;;;;7333122;19;109428;-67
2023/08/28 08:14:22;;;;;;;;;;;19.10;99.90;;;;;;7337261;19;108665;-67
2023/08/28 08:16:49;;;;;;;;;;;19.20;99.90;;;;;;7334241;19;110451;-68
2023/08/28 08:19:16;;;;;;;;;;;19.30;99.90;;;;;;7335764;19;108420;-67
2023/08/28 08:21:43;;;;;;;;;;;19.40;99.90;;;;;;7337841;19;109126;-67
2023/08/28 08:24:11;;;;;;;;;;;19.50;99.90;;;;;;7336203;19;108535;-66
2023/08/28 08:26:38;;;;;;;;;;;19.60;99.90;;;;;;7338156;19;109329;-67
2023/08/28 08:29:05;;;;;;;;;;;19.60;99.90;;;;;;7335604;19;109675;-66
2023/08/28 08:31:32;;;;;;;;;;;19.80;99.90;;;;;;7336458;19;109206;-66
2023/08/28 08:33:59;;;;;;;;;;;19.80;99.90;;;;;;7336252;19;109530;-66
2023/08/28 08:36:27;;;;;;;;;;;19.90;99.90;;;;;;7336385;19;112488;-66
2023/08/28 08:38:54;;;;;;;;;;;20.00;99.90;;;;;;7334540;19;109117;-66
2023/08/28 08:41:21;;;;;;;;;;;20.10;99.90;;;;;;7336354;19;110456;-66
2023/08/28 08:43:48;;;;;;;;;;;20.10;99.90;;;;;;7336407;19;108995;-66
2023/08/28 08:46:17;;;;;;;;;;;20.00;99.90;;;;;;7336211;19;114009;-68
2023/08/28 08:48:45;;;;;;;;;;;20.00;99.90;;;;;;7333252;19;109121;-66
2023/08/28 08:51:14;;;;;;;;;;;20.10;99.90;;;;;;7334428;19;108584;-66
2023/08/28 08:54:04;;;;;;;;;;;20.20;99.90;;;;;;7334875;19;109149;-66
2023/08/28 08:56:33;;;;;;;;;;;20.20;99.90;;;;;;7331083;19;109662;-66
2023/08/28 08:59:00;;;;;;;;;;;20.20;99.90;;;;;;7341209;19;109131;-66
2023/08/28 09:01:28;;;;;;;;;;;20.30;99.90;;;;;;7333193;19;110136;-67
2023/08/28 09:03:59;;;;;;;;;;;20.30;99.90;;;;;;7334726;19;108835;-66
2023/08/28 09:06:29;;;;;;;;;;;20.30;99.90;;;;;;7334400;19;109976;-67
2023/08/28 09:08:56;;;;;;;;;;;20.30;99.90;;;;;;7331154;19;110136;-68
2023/08/28 09:11:27;;;;;;;;;;;20.30;99.90;;;;;;7334627;19;109080;-67
2023/08/28 09:13:54;;;;;;;;;;;20.30;99.90;;;;;;7329553;19;108889;-67
2023/08/28 09:16:21;;;;;;;;;;;20.30;99.90;;;;;;7332363;19;110713;-67
2023/08/28 09:18:49;;;;;;;;;;;20.40;99.90;;;;;;7335204;19;109004;-67
2023/08/28 09:21:16;;;;;;;;;;;20.30;99.90;;;;;;7337179;19;109254;-69
2023/08/28 09:23:43;;;;;;;;;;;20.30;99.90;;;;;;7333258;19;109130;-69
2023/08/28 09:26:18;;;;;;;;;;;20.40;99.90;;;;;;7337697;19;110528;-66
2023/08/28 09:29:02;;;;;;;;;;;20.50;99.90;;;;;;7334745;19;110649;-66
2023/08/28 09:31:30;;;;;;;;;;;20.50;99.90;;;;;;7336637;19;108880;-67
2023/08/28 09:33:57;;;;;;;;;;;20.50;99.90;;;;;;7335301;19;111092;-66
2023/08/28 09:36:40;;;;;;;;;;;20.50;99.90;;;;;;7334248;19;109691;-66
2023/08/28 09:39:12;;;;;;;;;;;20.50;99.90;;;;;;7335473;19;108790;-66
2023/08/28 09:41:46;;;;;;;;;;;20.50;99.90;;;;;;7335636;19;109957;-66
2023/08/28 09:44:18;;;;;;;;;;;20.60;99.90;;;;;;7335779;19;108493;-67
2023/08/28 09:46:46;;;;;;;;;;;20.70;99.90;;;;;;7333177;19;109269;-66
2023/08/28 09:49:14;;;;;;;;;;;20.80;99.90;;;;;;7335014;19;109803;-66
2023/08/28 09:51:44;;;;;;;;;;;20.90;99.90;;;;;;7326536;19;110390;-66
2023/08/28 09:54:13;;;;;;;;;;;21.00;99.90;;;;;;7324838;19;111730;-65
2023/08/28 09:56:42;;;;;;;;;;;21.00;99.90;;;;;;7330069;19;110998;-66
2023/08/28 09:59:10;;;;;;;;;;;21.10;99.90;;;;;;7335202;19;108530;-65
2023/08/28 10:01:37;;;;;;;;;;;21.10;99.90;;;;;;7330086;19;109835;-67
2023/08/28 10:04:06;;;;;;;;;;;21.20;99.90;;;;;;7339027;19;109440;-67
2023/08/28 10:06:34;;;;;;;;;;;21.20;99.90;;;;;;7336909;19;109628;-67
2023/08/28 10:09:02;;;;;;;;;;;21.20;99.90;;;;;;7334857;19;110459;-67
2023/08/28 10:11:33;;;;;;;;;;;21.30;99.90;;;;;;7333025;19;108483;-67
2023/08/28 10:14:02;;;;;;;;;;;21.40;99.90;;;;;;7334896;19;108713;-67
2023/08/28 10:16:30;;;;;;;;;;;21.50;99.90;;;;;;7332651;19;109341;-67
2023/08/28 10:19:18;;;;;;;;;;;21.70;99.90;;;;;;7336232;19;108964;-67
2023/08/28 10:21:45;;;;;;;;;;;21.80;99.90;;;;;;7333202;19;108553;-67
2023/08/28 10:24:16;;;;;;;;;;;21.90;99.90;;;;;;7330704;19;109697;-67
2023/08/28 10:26:44;;;;;;;;;;;22.00;99.90;;;;;;7340928;19;109200;-67
2023/08/28 10:29:12;;;;;;;;;;;22.10;99.90;;;;;;7331233;19;109624;-67
2023/08/28 10:31:39;;;;;;;;;;;22.20;99.90;;;;;;7332405;19;109720;-67
2023/08/28 10:34:07;;;;;;;;;;;22.20;99.90;;;;;;7332965;19;109203;-67
2023/08/28 10:36:35;;;;;;;;;;;22.30;99.90;;;;;;7332495;19;109157;-68
2023/08/28 10:39:25;;;;;;;;;;;22.40;99.90;;;;;;7335858;19;109099;-67
2023/08/28 10:41:52;;;;;;;;;;;22.40;99.90;;;;;;7332625;19;110222;-68
2023/08/28 10:44:20;;;;;;;;;;;22.50;99.90;;;;;;7334067;19;109094;-67
2023/08/28 10:46:49;;;;;;;;;;;22.40;99.90;;;;;;7334244;19;108579;-67
2023/08/28 10:49:16;;;;;;;;;;;22.30;99.90;;;;;;7338762;19;108420;-67
2023/08/28 10:51:44;;;;;;;;;;;22.10;99.90;;;;;;7332361;19;109228;-67
2023/08/28 10:54:11;;;;;;;;;;;22.00;99.90;;;;;;7332984;19;108771;-66
2023/08/28 10:56:39;;;;;;;;;;;22.00;99.90;;;;;;7329506;19;110114;-67
2023/08/28 10:59:18;;;;;;;;;;;22.00;99.90;;;;;;7333009;19;108766;-67
2023/08/28 11:01:55;;;;;;;;;;;22.00;99.90;;;;;;7332639;19;108849;-67
2023/08/28 11:04:32;;;;;;;;;;;21.90;99.90;;;;;;7330734;19;110210;-67
2023/08/28 11:07:00;;;;;;;;;;;21.90;99.90;;;;;;7334710;19;108885;-67
2023/08/28 11:09:30;;;;;;;;;;;21.80;99.90;;;;;;7328290;19;110779;-66
2023/08/28 11:11:57;;;;;;;;;;;22.00;99.90;;;;;;7336848;19;109502;-67
2023/08/28 11:14:24;;;;;;;;;;;22.10;99.90;;;;;;7331649;19;109856;-67
2023/08/28 11:17:11;;;;;;;;;;;22.10;99.90;;;;;;7331298;19;110413;-67
2023/08/28 11:19:57;;;;;;;;;;;22.00;99.90;;;;;;7331281;19;111957;-67
2023/08/28 11:22:31;;;;;;;;;;;22.00;99.90;;;;;;7333138;19;110162;-67
2023/08/28 11:24:59;;;;;;;;;;;22.00;99.90;;;;;;7333483;19;109965;-67
2023/08/28 11:27:33;;;;;;;;;;;22.10;99.90;;;;;;7329455;19;109250;-67
2023/08/28 11:30:06;;;;;;;;;;;22.20;99.90;;;;;;7333246;19;108624;-66
2023/08/28 11:32:35;;;;;;;;;;;22.30;99.90;;;;;;7331136;19;109822;-66
2023/08/28 11:35:06;;;;;;;;;;;22.30;99.90;;;;;;7334319;19;110724;-66
2023/08/28 11:37:34;;;;;;;;;;;22.40;99.90;;;;;;7331272;19;110157;-66
2023/08/28 11:40:05;;;;;;;;;;;22.40;99.90;;;;;;7330060;19;108773;-66
2023/08/28 11:42:33;;;;;;;;;;;22.40;99.90;;;;;;7332540;19;108623;-67
2023/08/28 11:45:00;;;;;;;;;;;22.40;99.90;;;;;;7336629;19;109167;-66
2023/08/28 11:47:30;;;;;;;;;;;22.40;99.90;;;;;;7339528;19;109094;-66
2023/08/28 11:49:59;;;;;;;;;;;22.40;99.90;;;;;;7337322;19;109126;-67
2023/08/28 11:52:26;;;;;;;;;;;22.40;99.90;;;;;;7338802;19;110592;-67
2023/08/28 11:54:58;;;;;;;;;;;22.50;99.90;;;;;;7342709;19;111146;-67
2023/08/28 11:57:26;;;;;;;;;;;22.50;99.90;;;;;;7338052;19;109384;-67
2023/08/28 11:59:54;;;;;;;;;;;22.50;99.90;;;;;;7334920;19;109662;-66
2023/08/28 12:02:21;;;;;;;;;;;22.60;99.90;;;;;;7339165;19;108889;-67
2023/08/28 12:04:48;;;;;;;;;;;22.70;99.90;;;;;;7338611;19;110601;-67
2023/08/28 12:07:19;;;;;;;;;;;22.80;99.90;;;;;;7340037;19;111892;-67
2023/08/28 12:09:47;;;;;;;;;;;22.70;99.90;;;;;;7339806;19;110343;-67
2023/08/28 12:12:15;;;;;;;;;;;22.60;99.90;;;;;;7337322;19;110580;-67
2023/08/28 12:14:43;;;;;;;;;;;22.60;99.90;;;;;;7339675;19;108578;-67
2023/08/28 12:17:13;;;;;;;;;;;22.50;99.90;;;;;;7343230;19;109231;-67
2023/08/28 12:19:40;;;;;;;;;;;22.50;99.90;;;;;;7336975;19;109097;-67
2023/08/28 12:22:08;;;;;;;;;;;22.70;99.90;;;;;;7337979;19;109262;-67
2023/08/28 12:24:38;;;;;;;;;;;22.90;99.90;;;;;;7335093;19;109171;-66
2023/08/28 12:27:05;;;;;;;;;;;23.00;99.90;;;;;;7334744;19;108869;-67
2023/08/28 12:29:32;;;;;;;;;;;23.00;99.90;;;;;;7337127;19;109151;-67
2023/08/28 12:32:05;;;;;;;;;;;23.00;99.90;;;;;;7335487;19;109916;-67
2023/08/28 12:34:33;;;;;;;;;;;23.00;99.90;;;;;;7335398;19;109967;-67
2023/08/28 12:37:05;;;;;;;;;;;23.30;99.90;;;;;;7335367;19;113513;-67
2023/08/28 12:39:32;;;;;;;;;;;23.40;99.90;;;;;;7342946;19;109560;-66
2023/08/28 12:42:00;;;;;;;;;;;23.50;99.90;;;;;;7337703;19;108404;-67
2023/08/28 12:44:28;;;;;;;;;;;23.60;99.90;;;;;;7334700;19;109405;-67
2023/08/28 12:46:56;;;;;;;;;;;23.70;99.90;;;;;;7337471;19;110971;-67
2023/08/28 12:49:23;;;;;;;;;;;23.60;99.90;;;;;;7338325;19;108818;-68
2023/08/28 12:51:50;;;;;;;;;;;23.60;99.90;;;;;;7338118;19;109935;-67
2023/08/28 12:54:21;;;;;;;;;;;23.70;99.90;;;;;;7335813;19;110147;-67
2023/08/28 12:56:48;;;;;;;;;;;23.80;99.90;;;;;;7336360;19;109490;-67
2023/08/28 12:59:16;;;;;;;;;;;23.90;99.90;;;;;;7338758;19;109073;-67
2023/08/28 13:01:43;;;;;;;;;;;23.90;99.90;;;;;;7340864;19;108685;-67
2023/08/28 13:04:11;;;;;;;;;;;23.90;99.90;;;;;;7334353;19;111971;-67
2023/08/28 13:06:38;;;;;;;;;;;23.90;99.90;;;;;;7335738;19;108488;-67
2023/08/28 13:09:05;;;;;;;;;;;23.90;99.90;;;;;;7334410;19;109435;-67
2023/08/28 13:11:33;;;;;;;;;;;23.90;99.90;;;;;;7335040;19;110090;-67
2023/08/28 13:14:00;;;;;;;;;;;23.80;99.90;;;;;;7335331;19;109943;-67
2023/08/28 13:16:28;;;;;;;;;;;23.80;99.90;;;;;;7333456;19;109485;-67
2023/08/28 13:18:55;;;;;;;;;;;23.70;99.90;;;;;;7333740;19;109123;-67
2023/08/28 13:21:22;;;;;;;;;;;23.70;99.90;;;;;;7333992;19;111076;-67
2023/08/28 13:23:49;;;;;;;;;;;23.60;99.90;;;;;;7341609;19;108673;-68
2023/08/28 13:26:17;;;;;;;;;;;23.50;99.90;;;;;;7335345;19;108699;-67
2023/08/28 13:28:44;;;;;;;;;;;23.50;99.90;;;;;;7335648;19;109341;-67
2023/08/28 13:31:11;;;;;;;;;;;23.40;99.90;;;;;;7336002;19;110716;-67
2023/08/28 13:33:38;;;;;;;;;;;23.40;99.90;;;;;;7334754;19;109089;-67
2023/08/28 13:36:07;;;;;;;;;;;23.40;99.90;;;;;;7338540;19;109574;-67
2023/08/28 13:38:34;;;;;;;;;;;23.40;99.90;;;;;;7335888;19;109586;-67
2023/08/28 13:41:01;;;;;;;;;;;23.40;99.90;;;;;;7335648;19;108662;-67
2023/08/28 13:43:29;;;;;;;;;;;23.30;99.90;;;;;;7336836;19;109048;-67
2023/08/28 13:45:56;;;;;;;;;;;23.20;99.90;;;;;;7342448;19;109088;-67
2023/08/28 13:48:23;;;;;;;;;;;23.10;99.90;;;;;;7338276;19;109316;-67
2023/08/28 13:50:51;;;;;;;;;;;23.00;99.90;;;;;;7337190;19;110314;-68
2023/08/28 13:53:19;;;;;;;;;;;22.90;99.90;;;;;;7336121;19;109412;-67
2023/08/28 13:55:52;;;;;;;;;;;22.90;99.90;;;;;;7334090;19;109669;-67
2023/08/28 13:58:21;;;;;;;;;;;22.90;99.90;;;;;;7333774;19;109158;-67
2023/08/28 14:00:56;;;;;;;;;;;22.80;99.90;;;;;;7331652;19;109025;-67
2023/08/28 14:03:25;;;;;;;;;;;22.60;99.90;;;;;;7327956;19;110107;-67
2023/08/28 14:05:53;;;;;;;;;;;22.30;99.90;;;;;;7340108;19;110117;-68
2023/08/28 14:08:21;;;;;;;;;;;22.00;99.90;;;;;;7334267;19;109322;-68
2023/08/28 14:10:48;;;;;;;;;;;21.80;99.90;;;;;;7331962;19;109273;-68
2023/08/28 14:13:16;;;;;;;;;;;21.50;99.90;;;;;;7336704;19;109973;-69